createdAt,value
2022-07-31T00:01:10.227Z,3.30
2022-07-31T00:04:13.149Z,4.40
2022-07-31T00:07:16.056Z,3.70
2022-07-31T00:10:18.984Z,3.40
2022-07-31T00:13:57.159Z,5.80
2022-07-31T00:16:45.193Z,3.50
2022-07-31T00:19:48.115Z,3.60
2022-07-31T00:22:51.033Z,5.50
2022-07-31T00:25:54.090Z,4.70
2022-07-31T00:28:56.939Z,3.50
2022-07-31T00:31:59.767Z,2.80
2022-07-31T00:35:02.923Z,1.50
2022-07-31T00:38:26.319Z,1.40
2022-07-31T00:41:45.376Z,1.10
2022-07-31T00:44:49.056Z,1.30
2022-07-31T00:47:55.789Z,3.20
2022-07-31T00:50:58.958Z,2.40
2022-07-31T00:54:02.226Z,2.00
2022-07-31T00:57:06.631Z,0.80
2022-07-31T01:00:10.647Z,0.50
2022-07-31T01:03:14.459Z,1.00
2022-07-31T01:06:17.687Z,1.30
2022-07-31T01:09:20.681Z,0.30
2022-07-31T01:16:22.042Z,1.20
2022-07-31T01:19:42.718Z,0.60
2022-07-31T01:23:43.078Z,2.00
2022-07-31T01:28:07.769Z,0.50
2022-07-31T01:31:27.462Z,1.40
2022-07-31T01:34:44.846Z,2.00
2022-07-31T01:38:01.888Z,2.20
2022-07-31T01:41:10.624Z,0.50
2022-07-31T01:44:16.378Z,0.60
2022-07-31T01:47:21.636Z,0.30
2022-07-31T01:50:43.981Z,1.00
2022-07-31T01:53:48.963Z,0.30
2022-07-31T01:56:52.762Z,0.20
2022-07-31T01:59:58.588Z,0.80
2022-07-31T02:06:43.687Z,1.10
2022-07-31T02:09:52.258Z,1.50
2022-07-31T02:13:02.957Z,0.90
2022-07-31T02:16:07.039Z,0.90
2022-07-31T02:19:12.436Z,0.30
2022-07-31T02:22:15.534Z,0.60
2022-07-31T02:25:18.571Z,1.00
2022-07-31T02:28:22.859Z,0.60
2022-07-31T02:31:26.480Z,0.30
2022-07-31T02:34:31.762Z,0.50
2022-07-31T02:37:37.619Z,0.40
2022-07-31T02:40:42.314Z,0.80
2022-07-31T02:43:47.213Z,1.20
2022-07-31T02:46:56.389Z,1.40
2022-07-31T02:49:59.712Z,0.60
2022-07-31T02:53:03.786Z,0.30
2022-07-31T02:56:09.428Z,0.90
2022-07-31T02:59:13.768Z,0.50
2022-07-31T03:02:45.852Z,3.50
2022-07-31T03:05:48.936Z,0.80
2022-07-31T03:08:51.836Z,0.20
2022-07-31T03:11:58.560Z,2.10
2022-07-31T03:15:14.610Z,1.10
2022-07-31T03:18:21.858Z,0.60
2022-07-31T03:21:25.816Z,0.90
2022-07-31T03:24:28.913Z,0.40
2022-07-31T03:27:31.931Z,0.30
2022-07-31T03:30:35.252Z,0.30
2022-07-31T03:33:38.404Z,0.40
2022-07-31T03:36:41.447Z,0.70
2022-07-31T03:39:44.418Z,0.80
2022-07-31T03:42:50.337Z,1.70
2022-07-31T03:45:53.946Z,0.70
2022-07-31T03:48:57.242Z,0.40
2022-07-31T03:52:02.147Z,0.70
2022-07-31T03:55:06.796Z,0.10
2022-07-31T03:58:10.269Z,0.60
2022-07-31T04:01:15.630Z,0.30
2022-07-31T04:04:18.853Z,0.30
2022-07-31T04:07:33.868Z,0.50
2022-07-31T04:10:37.357Z,1.20
2022-07-31T04:13:40.900Z,0.50
2022-07-31T04:16:43.917Z,1.70
2022-07-31T04:19:46.918Z,0.40
2022-07-31T04:22:50.202Z,0.40
2022-07-31T04:26:10.534Z,0.30
2022-07-31T04:29:30.450Z,0.60
2022-07-31T04:32:33.364Z,0.60
2022-07-31T04:35:40.411Z,0.50
2022-07-31T04:38:43.628Z,0.40
2022-07-31T04:41:47.174Z,0.60
2022-07-31T04:44:50.476Z,1.90
2022-07-31T04:47:53.404Z,1.80
2022-07-31T04:50:56.513Z,1.90
2022-07-31T04:53:59.509Z,1.50
2022-07-31T04:57:05.180Z,1.20
2022-07-31T05:00:10.469Z,1.20
2022-07-31T05:03:13.479Z,1.10
2022-07-31T05:06:16.859Z,1.20
2022-07-31T05:09:25.772Z,1.40
2022-07-31T05:12:34.936Z,1.00
2022-07-31T05:15:37.861Z,2.80
2022-07-31T05:18:40.943Z,1.20
2022-07-31T05:22:05.343Z,1.50
2022-07-31T05:25:09.068Z,3.60
2022-07-31T05:28:12.231Z,0.90
2022-07-31T05:31:16.758Z,1.50
2022-07-31T05:34:19.660Z,1.00
2022-07-31T05:37:22.544Z,1.10
2022-07-31T05:40:25.472Z,0.90
2022-07-31T05:43:46.930Z,1.20
2022-07-31T05:49:58.352Z,1.80
2022-07-31T05:53:01.484Z,2.40
2022-07-31T05:56:30.547Z,1.20
2022-07-31T05:59:35.579Z,1.70
2022-07-31T06:02:39.518Z,0.90
2022-07-31T06:06:05.650Z,1.40
2022-07-31T06:09:08.546Z,0.80
2022-07-31T06:12:13.893Z,1.10
2022-07-31T06:15:16.781Z,1.20
2022-07-31T06:18:19.885Z,1.00
2022-07-31T06:24:26.041Z,0.80
2022-07-31T06:27:33.594Z,1.10
2022-07-31T06:30:38.051Z,1.00
2022-07-31T06:33:41.008Z,0.80
2022-07-31T06:36:51.619Z,1.30
2022-07-31T06:39:57.947Z,1.30
2022-07-31T06:43:29.535Z,1.10
2022-07-31T06:46:52.393Z,1.80
2022-07-31T06:50:16.131Z,1.50
2022-07-31T06:53:31.170Z,1.10
2022-07-31T06:56:35.548Z,1.90
2022-07-31T06:59:39.835Z,1.70
2022-07-31T07:02:43.556Z,0.80
2022-07-31T07:05:46.754Z,1.10
2022-07-31T07:08:50.548Z,1.80
2022-07-31T07:11:54.953Z,1.30
2022-07-31T07:14:58.257Z,2.20
2022-07-31T07:18:01.437Z,2.00
2022-07-31T07:21:10.601Z,1.20
2022-07-31T07:24:14.555Z,1.40
2022-07-31T07:27:33.616Z,1.10
2022-07-31T07:30:38.360Z,1.60
2022-07-31T07:33:43.096Z,2.50
2022-07-31T07:36:50.410Z,2.20
2022-07-31T07:40:03.812Z,2.30
2022-07-31T07:43:07.142Z,1.50
2022-07-31T07:46:10.134Z,2.60
2022-07-31T07:49:16.007Z,2.40
2022-07-31T07:52:29.601Z,2.20
2022-07-31T07:55:52.615Z,2.80
2022-07-31T07:59:14.902Z,1.80
2022-07-31T08:03:50.310Z,1.40
2022-07-31T08:06:16.701Z,1.40
2022-07-31T08:09:21.258Z,1.50
2022-07-31T08:12:50.939Z,2.10
2022-07-31T08:16:06.197Z,1.50
2022-07-31T08:19:14.260Z,2.10
2022-07-31T08:22:18.177Z,1.80
2022-07-31T08:25:21.348Z,1.80
2022-07-31T08:28:26.738Z,1.40
2022-07-31T08:31:29.800Z,1.80
2022-07-31T08:34:52.032Z,1.90
2022-07-31T08:38:03.490Z,1.80
2022-07-31T08:41:15.124Z,2.20
2022-07-31T08:44:18.035Z,1.20
2022-07-31T08:47:33.475Z,2.40
2022-07-31T08:50:40.578Z,1.20
2022-07-31T08:53:51.344Z,1.50
2022-07-31T08:56:55.863Z,1.10
2022-07-31T08:59:58.740Z,1.30
2022-07-31T09:03:03.481Z,1.70
2022-07-31T09:06:27.656Z,1.70
2022-07-31T09:09:45.238Z,1.50
2022-07-31T09:12:56.011Z,1.20
2022-07-31T09:16:01.441Z,1.60
2022-07-31T09:19:52.179Z,1.30
2022-07-31T09:22:31.493Z,2.00
2022-07-31T09:25:36.444Z,1.20
2022-07-31T09:28:45.115Z,1.20
2022-07-31T09:31:48.156Z,1.00
2022-07-31T09:35:15.626Z,2.70
2022-07-31T09:38:19.261Z,2.20
2022-07-31T09:41:58.288Z,1.00
2022-07-31T09:45:25.846Z,1.40
2022-07-31T09:48:29.746Z,1.50
2022-07-31T09:51:42.303Z,1.40
2022-07-31T09:54:46.220Z,1.10
2022-07-31T09:58:01.497Z,1.60
2022-07-31T10:01:11.065Z,1.10
2022-07-31T10:04:16.975Z,1.30
2022-07-31T10:07:32.080Z,1.10
2022-07-31T10:10:46.730Z,1.50
2022-07-31T10:14:15.710Z,1.30
2022-07-31T10:17:28.646Z,1.90
2022-07-31T10:20:57.318Z,1.60
2022-07-31T10:24:27.961Z,1.60
2022-07-31T10:27:32.955Z,2.20
2022-07-31T10:30:46.403Z,2.60
2022-07-31T10:33:49.965Z,3.00
2022-07-31T10:37:31.769Z,1.70
2022-07-31T10:41:09.994Z,1.90
2022-07-31T10:44:38.663Z,2.50
2022-07-31T10:47:55.935Z,1.50
2022-07-31T10:51:20.294Z,1.50
2022-07-31T10:55:02.006Z,1.50
2022-07-31T10:58:20.920Z,1.60
2022-07-31T11:01:26.972Z,2.80
2022-07-31T11:04:50.504Z,1.90
2022-07-31T11:08:07.966Z,2.60
2022-07-31T11:11:34.255Z,2.80
2022-07-31T11:14:58.266Z,2.70
2022-07-31T11:18:27.530Z,5.00
2022-07-31T11:21:42.377Z,2.70
2022-07-31T11:24:58.734Z,1.90
2022-07-31T11:28:16.146Z,2.70
2022-07-31T11:31:19.275Z,3.00
2022-07-31T11:34:22.161Z,3.40
2022-07-31T11:37:57.049Z,5.00
2022-07-31T11:40:56.021Z,4.00
2022-07-31T11:43:58.955Z,3.00
2022-07-31T11:47:02.343Z,5.70
2022-07-31T11:50:06.065Z,3.10
2022-07-31T11:53:09.336Z,3.00
2022-07-31T11:56:12.407Z,4.30
2022-07-31T11:59:45.182Z,4.60
2022-07-31T12:02:43.181Z,4.10
2022-07-31T12:05:48.246Z,5.30
2022-07-31T12:08:51.445Z,2.90
2022-07-31T12:11:55.094Z,3.70
2022-07-31T12:14:58.031Z,4.60
2022-07-31T12:18:03.091Z,4.20
2022-07-31T12:21:06.104Z,4.70
2022-07-31T12:24:13.764Z,4.20
2022-07-31T12:27:18.450Z,7.30
2022-07-31T12:30:29.864Z,2.50
2022-07-31T12:33:43.563Z,4.90
2022-07-31T12:36:57.365Z,4.00
2022-07-31T12:40:01.394Z,2.60
2022-07-31T12:43:04.806Z,3.10
2022-07-31T12:46:07.712Z,4.10
2022-07-31T12:49:10.683Z,3.90
2022-07-31T12:52:13.785Z,4.30
2022-07-31T12:55:17.177Z,3.60
2022-07-31T12:58:20.552Z,3.20
2022-07-31T13:01:23.737Z,3.50
2022-07-31T13:04:26.669Z,4.00
2022-07-31T13:07:30.099Z,4.00
2022-07-31T13:10:33.073Z,5.30
2022-07-31T13:13:35.954Z,4.10
2022-07-31T13:16:38.860Z,3.90
2022-07-31T13:19:41.720Z,3.50
2022-07-31T13:22:44.994Z,5.10
2022-07-31T13:25:47.915Z,6.50
2022-07-31T13:28:51.155Z,5.30
2022-07-31T13:31:55.408Z,5.50
2022-07-31T13:35:24.053Z,3.90
2022-07-31T13:38:21.551Z,2.80
2022-07-31T13:41:24.476Z,4.70
2022-07-31T13:44:27.525Z,3.50
2022-07-31T13:47:50.854Z,3.30
2022-07-31T13:50:53.272Z,3.30
2022-07-31T13:53:56.522Z,3.90
2022-07-31T13:56:59.429Z,3.60
2022-07-31T14:00:02.311Z,2.80
2022-07-31T14:03:07.830Z,4.20
2022-07-31T14:06:10.775Z,5.70
2022-07-31T14:09:14.280Z,5.20
2022-07-31T14:12:17.214Z,3.30
2022-07-31T14:15:20.280Z,4.10
2022-07-31T14:18:24.215Z,5.00
2022-07-31T14:21:27.171Z,5.80
2022-07-31T14:24:31.401Z,8.00
2022-07-31T14:27:38.677Z,3.60
2022-07-31T14:30:46.439Z,5.20
2022-07-31T14:33:52.573Z,3.30
2022-07-31T14:36:55.428Z,3.60
2022-07-31T14:39:58.480Z,4.60
2022-07-31T14:43:02.916Z,7.40
2022-07-31T14:46:06.794Z,2.80
2022-07-31T14:49:10.360Z,3.20
2022-07-31T14:52:13.334Z,3.60
2022-07-31T14:55:16.237Z,4.70
2022-07-31T14:58:19.162Z,3.80
2022-07-31T15:01:22.084Z,3.80
2022-07-31T15:04:29.032Z,4.90
2022-07-31T15:07:35.720Z,6.20
2022-07-31T15:10:40.001Z,5.20
2022-07-31T15:13:43.036Z,3.50
2022-07-31T15:16:49.686Z,3.40
2022-07-31T15:19:53.483Z,4.00
2022-07-31T15:22:58.166Z,2.50
2022-07-31T15:26:01.155Z,4.00
2022-07-31T15:29:04.199Z,3.10
2022-07-31T15:32:07.811Z,3.20
2022-07-31T15:35:12.549Z,4.00
2022-07-31T15:38:15.796Z,3.50
2022-07-31T15:41:19.227Z,3.30
2022-07-31T15:44:22.153Z,3.20
2022-07-31T15:47:25.180Z,3.90
2022-07-31T15:50:28.125Z,3.00
2022-07-31T15:53:38.982Z,2.50
2022-07-31T15:56:42.363Z,2.40
2022-07-31T15:59:45.247Z,4.10
2022-07-31T16:02:49.530Z,3.20
2022-07-31T16:05:56.168Z,5.00
2022-07-31T16:08:59.306Z,3.40
2022-07-31T16:12:03.685Z,5.00
2022-07-31T16:15:09.507Z,3.20
2022-07-31T16:18:18.056Z,3.50
2022-07-31T16:21:21.673Z,5.00
2022-07-31T16:24:24.596Z,3.20
2022-07-31T16:27:28.043Z,3.30
2022-07-31T16:30:31.807Z,3.40
2022-07-31T16:33:34.891Z,3.30
2022-07-31T16:36:38.195Z,3.40
2022-07-31T16:39:41.094Z,3.80
2022-07-31T16:42:46.172Z,5.00
2022-07-31T16:45:49.939Z,4.10
2022-07-31T16:48:53.048Z,3.10
2022-07-31T16:51:56.049Z,2.70
2022-07-31T16:54:58.935Z,4.10
2022-07-31T16:58:01.901Z,7.00
2022-07-31T17:01:04.963Z,3.70
2022-07-31T17:04:07.974Z,5.90
2022-07-31T17:07:11.778Z,2.30
2022-07-31T17:10:15.854Z,4.10
2022-07-31T17:13:19.632Z,3.00
2022-07-31T17:16:22.738Z,4.10
2022-07-31T17:19:41.172Z,5.20
2022-07-31T17:22:48.378Z,3.10
2022-07-31T17:25:57.713Z,2.90
2022-07-31T17:29:00.710Z,3.50
2022-07-31T17:32:04.255Z,3.40
2022-07-31T17:35:08.885Z,4.50
2022-07-31T17:38:16.656Z,5.60
2022-07-31T17:41:25.437Z,3.50
2022-07-31T17:44:28.981Z,4.40
2022-07-31T17:47:33.799Z,3.70
2022-07-31T17:50:37.217Z,4.70
2022-07-31T17:53:54.603Z,5.80
2022-07-31T17:56:59.368Z,6.80
2022-07-31T18:00:02.371Z,4.20
2022-07-31T18:03:08.071Z,5.70
2022-07-31T18:06:11.258Z,6.00
2022-07-31T18:09:16.836Z,3.10
2022-07-31T18:12:19.832Z,4.00
2022-07-31T18:15:22.803Z,4.10
2022-07-31T18:18:38.098Z,4.40
2022-07-31T18:21:41.261Z,5.60
2022-07-31T18:24:44.665Z,5.40
2022-07-31T18:27:47.692Z,4.80
2022-07-31T18:30:50.592Z,5.70
2022-07-31T18:33:53.570Z,3.70
2022-07-31T18:36:59.400Z,3.60
2022-07-31T18:40:03.840Z,5.80
2022-07-31T18:43:09.773Z,5.70
2022-07-31T18:46:12.839Z,9.00
2022-07-31T18:51:02.914Z,4.70
2022-07-31T18:52:43.312Z,5.20
2022-07-31T18:55:47.316Z,4.80
2022-07-31T18:58:50.747Z,9.00
2022-07-31T19:01:53.710Z,6.90
2022-07-31T19:04:59.243Z,7.80
2022-07-31T19:08:05.375Z,7.00
2022-07-31T19:11:08.525Z,3.50
2022-07-31T19:14:12.806Z,7.60
2022-07-31T19:17:19.773Z,4.70
2022-07-31T19:20:57.416Z,6.50
2022-07-31T19:23:50.012Z,5.70
2022-07-31T19:26:54.985Z,5.00
2022-07-31T19:29:57.890Z,7.70
2022-07-31T19:33:01.429Z,3.40
2022-07-31T19:36:04.980Z,4.30
2022-07-31T19:39:12.426Z,4.30
2022-07-31T19:42:15.784Z,4.10
2022-07-31T19:45:21.398Z,7.20
2022-07-31T19:48:24.400Z,6.80
2022-07-31T19:51:27.251Z,4.90
2022-07-31T19:54:30.715Z,4.30
2022-07-31T19:57:34.237Z,7.40
2022-07-31T20:00:37.129Z,3.10
2022-07-31T20:03:40.177Z,4.80
2022-07-31T20:06:43.647Z,7.90
2022-07-31T20:09:48.195Z,8.60
2022-07-31T20:12:51.527Z,4.80
2022-07-31T20:15:55.214Z,3.30
2022-07-31T20:18:58.493Z,5.00
2022-07-31T20:22:01.847Z,3.60
2022-07-31T20:25:12.066Z,4.00
2022-07-31T20:28:23.527Z,5.90
2022-07-31T20:31:26.449Z,4.20
2022-07-31T20:34:29.398Z,5.00
2022-07-31T20:37:32.675Z,4.90
2022-07-31T20:40:39.157Z,6.40
2022-07-31T20:43:42.801Z,5.00
2022-07-31T20:46:46.116Z,3.90
2022-07-31T20:49:49.814Z,4.40
2022-07-31T20:52:53.154Z,4.50
2022-07-31T20:55:56.876Z,7.50
2022-07-31T20:59:00.092Z,5.60
2022-07-31T21:02:03.517Z,6.50
2022-07-31T21:05:07.246Z,6.50
2022-07-31T21:08:11.470Z,3.60
2022-07-31T21:11:14.838Z,7.50
2022-07-31T21:14:18.094Z,4.70
2022-07-31T21:17:21.398Z,5.00
2022-07-31T21:20:31.302Z,3.80
2022-07-31T21:23:51.406Z,4.90
2022-07-31T21:26:59.630Z,5.50
2022-07-31T21:30:04.577Z,7.50
2022-07-31T21:33:08.619Z,3.70
2022-07-31T21:36:13.961Z,3.40
2022-07-31T21:39:18.702Z,3.80
2022-07-31T21:42:22.841Z,4.80
2022-07-31T21:45:30.348Z,3.70
2022-07-31T21:48:53.055Z,6.50
2022-07-31T21:51:56.577Z,3.50
2022-07-31T21:55:04.045Z,6.30
2022-07-31T21:58:08.642Z,6.10
2022-07-31T22:01:12.006Z,6.70
2022-07-31T22:04:15.106Z,3.40
2022-07-31T22:07:33.473Z,4.80
2022-07-31T22:10:36.856Z,4.00
2022-07-31T22:13:40.147Z,4.70
2022-07-31T22:16:43.128Z,4.20
2022-07-31T22:19:48.890Z,4.80
2022-07-31T22:22:52.032Z,6.80
2022-07-31T22:25:55.508Z,4.60
2022-07-31T22:28:58.936Z,5.70
2022-07-31T22:32:02.016Z,8.30
2022-07-31T22:35:05.896Z,7.60
2022-07-31T22:38:11.128Z,4.80
2022-07-31T22:41:14.156Z,6.40
2022-07-31T22:44:18.999Z,5.10
2022-07-31T22:47:27.294Z,6.00
2022-07-31T22:50:30.346Z,5.90
2022-07-31T22:53:34.963Z,5.80
2022-07-31T22:56:37.932Z,4.80
2022-07-31T22:59:41.204Z,6.30
2022-07-31T23:02:44.420Z,4.90
2022-07-31T23:06:13.150Z,5.30
2022-07-31T23:09:10.281Z,3.30
2022-07-31T23:12:13.267Z,6.60
2022-07-31T23:15:16.197Z,6.50
2022-07-31T23:18:19.348Z,8.80
2022-07-31T23:21:22.948Z,5.90
2022-07-31T23:24:25.883Z,6.10
2022-07-31T23:27:29.022Z,5.80
2022-07-31T23:30:31.897Z,4.40
2022-07-31T23:33:34.787Z,5.50
2022-07-31T23:36:37.664Z,4.70
2022-07-31T23:39:40.554Z,4.10
2022-07-31T23:42:43.428Z,4.90
2022-07-31T23:45:46.316Z,5.00
2022-07-31T23:48:49.561Z,5.30
2022-07-31T23:51:52.593Z,5.90
2022-07-31T23:54:55.469Z,7.30
2022-07-31T23:57:58.371Z,5.00
